Time;durP1;ratioP1;P1;durP2;ratioP2;P2;SDS_P1;SDS_P2;PMS_P1;PMS_P2;Temp;Humidity;BMP_temperature;BMP_pressure;BME280_temperature;BME280_humidity;BME280_pressure;Samples;Min_cycle;Max_cycle;Signal;HPM_P1;HPM_P2
2022/04/08 00:02:09;;;;;;;15.60;3.10;;;;;;;;;;5055266;28;20033;-77
2022/04/08 00:04:35;;;;;;;21.23;2.78;;;;;;;;;;5060391;28;20033;-77
2022/04/08 00:07:01;;;;;;;22.40;3.70;;;;;;;;;;5044428;28;20036;-77
2022/04/08 00:09:27;;;;;;;23.27;3.22;;;;;;;;;;5060301;28;20024;-78
2022/04/08 00:11:55;;;;;;;19.30;2.50;;;;;;;;;;5031433;28;20071;-76
2022/04/08 00:14:21;;;;;;;17.63;2.80;;;;;;;;;;5057495;28;20078;-76
2022/04/08 00:16:47;;;;;;;19.08;3.20;;;;;;;;;;5032517;28;20540;-77
2022/04/08 00:19:14;;;;;;;15.68;2.40;;;;;;;;;;5059656;28;20024;-77
2022/04/08 00:21:40;;;;;;;26.80;3.00;;;;;;;;;;5037093;28;20554;-76
2022/04/08 00:24:07;;;;;;;25.17;4.13;;;;;;;;;;5049599;28;20092;-76
2022/04/08 00:26:33;;;;;;;26.48;3.17;;;;;;;;;;5052724;28;20032;-75
2022/04/08 00:28:59;;;;;;;19.15;3.50;;;;;;;;;;5054437;28;20035;-76
2022/04/08 00:31:25;;;;;;;23.65;4.20;;;;;;;;;;5050350;28;20029;-76
2022/04/08 00:33:51;;;;;;;19.42;2.60;;;;;;;;;;5057515;28;20040;-75
2022/04/08 00:36:17;;;;;;;24.05;2.50;;;;;;;;;;5039499;28;20033;-76
2022/04/08 00:38:43;;;;;;;21.25;3.13;;;;;;;;;;5042081;28;20045;-77
2022/04/08 00:41:09;;;;;;;24.05;2.70;;;;;;;;;;5060225;28;20129;-76
2022/04/08 00:43:37;;;;;;;19.45;3.75;;;;;;;;;;5052844;28;20113;-76
2022/04/08 00:46:03;;;;;;;18.23;2.50;;;;;;;;;;5040953;28;20025;-76
2022/04/08 00:48:29;;;;;;;23.98;3.38;;;;;;;;;;5055457;28;20477;-76
2022/04/08 00:50:56;;;;;;;20.92;3.20;;;;;;;;;;5048551;28;20039;-76
2022/04/08 00:53:22;;;;;;;23.58;3.38;;;;;;;;;;5051084;28;20028;-76
2022/04/08 00:55:48;;;;;;;17.75;2.90;;;;;;;;;;5034084;28;20068;-76
2022/04/08 00:58:14;;;;;;;18.45;3.40;;;;;;;;;;5058055;28;20462;-77
2022/04/08 01:00:42;;;;;;;15.88;2.90;;;;;;;;;;5032611;28;20036;-77
2022/04/08 01:03:09;;;;;;;24.73;2.55;;;;;;;;;;5057227;28;20043;-78
2022/04/08 01:05:35;;;;;;;18.50;3.17;;;;;;;;;;5060278;28;20029;-76
2022/04/08 01:08:02;;;;;;;23.08;3.47;;;;;;;;;;5052404;28;20024;-77
2022/04/08 01:10:28;;;;;;;25.38;3.40;;;;;;;;;;5044125;28;20485;-77
2022/04/08 01:12:54;;;;;;;24.50;3.88;;;;;;;;;;5036789;28;20514;-77
2022/04/08 01:15:21;;;;;;;27.92;3.20;;;;;;;;;;5063607;28;21569;-77
2022/04/08 01:17:48;;;;;;;20.90;3.42;;;;;;;;;;5040818;28;20147;-76
2022/04/08 01:20:14;;;;;;;27.20;4.25;;;;;;;;;;5047637;28;20119;-76
2022/04/08 01:22:41;;;;;;;29.33;3.40;;;;;;;;;;5052969;28;20029;-74
2022/04/08 01:25:08;;;;;;;19.30;2.97;;;;;;;;;;5040915;28;20483;-74
2022/04/08 01:27:35;;;;;;;27.98;4.03;;;;;;;;;;5055793;28;20032;-75
2022/04/08 01:30:01;;;;;;;42.60;4.15;;;;;;;;;;5055748;28;20048;-76
2022/04/08 01:32:27;;;;;;;22.50;3.20;;;;;;;;;;5029059;28;20491;-75
2022/04/08 01:34:53;;;;;;;35.88;5.88;;;;;;;;;;5063690;28;20122;-75
2022/04/08 01:37:20;;;;;;;28.50;3.55;;;;;;;;;;5043563;28;20033;-75
2022/04/08 01:39:46;;;;;;;29.55;4.28;;;;;;;;;;5040103;28;20091;-75
2022/04/08 01:42:12;;;;;;;24.48;3.22;;;;;;;;;;5050023;28;20597;-75
2022/04/08 01:44:38;;;;;;;27.90;3.85;;;;;;;;;;5026665;28;20556;-75
2022/04/08 01:47:05;;;;;;;22.83;3.38;;;;;;;;;;5037156;28;20132;-76
2022/04/08 01:49:31;;;;;;;26.77;2.92;;;;;;;;;;5044291;28;20033;-75
2022/04/08 01:51:57;;;;;;;23.83;3.08;;;;;;;;;;5035856;28;20029;-76
2022/04/08 01:54:23;;;;;;;27.95;4.20;;;;;;;;;;5029494;28;20040;-76
2022/04/08 01:56:49;;;;;;;28.83;4.18;;;;;;;;;;5038936;28;20470;-75
2022/04/08 01:59:15;;;;;;;31.70;3.22;;;;;;;;;;5033697;28;20044;-75
2022/04/08 02:01:41;;;;;;;22.75;2.85;;;;;;;;;;5030675;28;20041;-76
2022/04/08 02:04:07;;;;;;;24.95;4.32;;;;;;;;;;5018867;28;20033;-76
2022/04/08 02:06:40;;;;;;;19.35;2.80;;;;;;;;;;5020140;28;20049;-75
2022/04/08 02:09:07;;;;;;;22.35;2.88;;;;;;;;;;5015588;28;20457;-75
2022/04/08 02:11:33;;;;;;;18.45;2.65;;;;;;;;;;5013881;28;20034;-75
2022/04/08 02:14:00;;;;;;;19.95;3.70;;;;;;;;;;5018865;28;20048;-76
2022/04/08 02:16:26;;;;;;;29.67;2.38;;;;;;;;;;5040458;28;20033;-76
2022/04/08 02:18:52;;;;;;;31.80;5.38;;;;;;;;;;5036398;28;20079;-75
2022/04/08 02:21:19;;;;;;;32.88;3.67;;;;;;;;;;5024475;28;20113;-77
2022/04/08 02:23:48;;;;;;;21.73;3.17;;;;;;;;;;5041268;28;20375;-77
2022/04/08 02:26:16;;;;;;;12.20;2.90;;;;;;;;;;5048276;28;20024;-77
2022/04/08 02:28:42;;;;;;;23.85;2.80;;;;;;;;;;5047086;28;20032;-77
2022/04/08 02:31:08;;;;;;;14.27;1.90;;;;;;;;;;5020118;28;20029;-78
2022/04/08 02:33:34;;;;;;;15.60;2.42;;;;;;;;;;5016799;28;20039;-77
2022/04/08 02:36:00;;;;;;;12.48;2.63;;;;;;;;;;5039865;28;20112;-76
2022/04/08 02:38:26;;;;;;;17.55;3.22;;;;;;;;;;5033338;28;20045;-78
2022/04/08 02:40:52;;;;;;;14.63;3.65;;;;;;;;;;5041909;28;20025;-76
2022/04/08 02:43:18;;;;;;;12.98;2.53;;;;;;;;;;5029155;28;20076;-76
2022/04/08 02:45:44;;;;;;;17.73;2.88;;;;;;;;;;5044157;28;20026;-75
2022/04/08 02:48:13;;;;;;;12.02;2.90;;;;;;;;;;5014422;28;20359;-76
2022/04/08 02:50:39;;;;;;;14.32;3.17;;;;;;;;;;5013000;28;20148;-76
2022/04/08 02:53:05;;;;;;;11.40;4.13;;;;;;;;;;5016180;28;20070;-76
2022/04/08 02:55:31;;;;;;;14.05;3.15;;;;;;;;;;5022730;28;20037;-76
2022/04/08 02:57:57;;;;;;;17.73;3.35;;;;;;;;;;5019768;28;20061;-76
2022/04/08 03:00:23;;;;;;;18.20;3.05;;;;;;;;;;5020291;28;20060;-75
2022/04/08 03:02:49;;;;;;;17.02;3.38;;;;;;;;;;5041394;28;20033;-76
2022/04/08 03:05:16;;;;;;;19.05;3.20;;;;;;;;;;5021677;28;20482;-76
2022/04/08 03:07:42;;;;;;;18.05;3.35;;;;;;;;;;5019069;28;20030;-76
2022/04/08 03:10:09;;;;;;;33.72;5.85;;;;;;;;;;5020229;28;20049;-76
2022/04/08 03:12:35;;;;;;;19.33;4.43;;;;;;;;;;5039393;28;20041;-76
2022/04/08 03:15:01;;;;;;;22.23;5.05;;;;;;;;;;5018084;28;20045;-77
2022/04/08 03:17:27;;;;;;;21.15;3.92;;;;;;;;;;5024854;28;20101;-77
2022/04/08 03:19:54;;;;;;;20.20;3.97;;;;;;;;;;5021414;28;20037;-76
2022/04/08 03:22:20;;;;;;;19.98;3.50;;;;;;;;;;5037619;28;20038;-76
2022/04/08 03:24:49;;;;;;;20.60;4.95;;;;;;;;;;5043052;28;20120;-76
2022/04/08 03:27:16;;;;;;;18.27;4.65;;;;;;;;;;5026090;28;20055;-76
2022/04/08 03:29:42;;;;;;;27.73;5.78;;;;;;;;;;5041382;28;20029;-76
2022/04/08 03:32:09;;;;;;;27.00;4.88;;;;;;;;;;5037970;28;20091;-76
2022/04/08 03:34:35;;;;;;;12.10;4.38;;;;;;;;;;5022535;28;20033;-76
2022/04/08 03:37:01;;;;;;;15.73;4.47;;;;;;;;;;5026729;28;20097;-76
2022/04/08 03:39:27;;;;;;;20.17;4.63;;;;;;;;;;5021461;28;20146;-76
2022/04/08 03:41:56;;;;;;;20.17;5.63;;;;;;;;;;5014574;28;20057;-76
2022/04/08 03:44:22;;;;;;;16.25;5.22;;;;;;;;;;5037611;28;20129;-77
2022/04/08 03:46:49;;;;;;;21.30;4.93;;;;;;;;;;5040711;28;20041;-76
2022/04/08 03:49:15;;;;;;;20.20;5.50;;;;;;;;;;5058452;28;20028;-77
2022/04/08 03:51:41;;;;;;;17.60;5.18;;;;;;;;;;5054302;28;20029;-76
2022/04/08 03:54:08;;;;;;;25.00;5.30;;;;;;;;;;5034671;28;20041;-76
2022/04/08 03:56:34;;;;;;;24.60;4.75;;;;;;;;;;5063555;28;20048;-74
2022/04/08 03:59:00;;;;;;;20.85;4.53;;;;;;;;;;5052525;28;20040;-76
2022/04/08 04:01:26;;;;;;;18.73;5.28;;;;;;;;;;5056455;28;20470;-77
2022/04/08 04:03:52;;;;;;;27.70;5.68;;;;;;;;;;5055561;28;20051;-74
2022/04/08 04:06:18;;;;;;;23.00;4.97;;;;;;;;;;5062480;28;20051;-74
2022/04/08 04:08:44;;;;;;;21.45;5.38;;;;;;;;;;5060431;28;20131;-74
2022/04/08 04:11:15;;;;;;;18.90;6.07;;;;;;;;;;5063241;28;20064;-75
2022/04/08 04:13:41;;;;;;;15.52;4.25;;;;;;;;;;5053175;28;20032;-75
2022/04/08 04:16:07;;;;;;;23.77;5.50;;;;;;;;;;5039946;28;20314;-75
2022/04/08 04:18:33;;;;;;;27.25;5.55;;;;;;;;;;5063436;28;20119;-75
2022/04/08 04:20:59;;;;;;;24.45;6.00;;;;;;;;;;5063268;28;20510;-75
2022/04/08 04:23:25;;;;;;;30.83;5.80;;;;;;;;;;5044830;28;20036;-75
2022/04/08 04:25:51;;;;;;;16.23;4.70;;;;;;;;;;5055883;28;20032;-75
2022/04/08 04:28:17;;;;;;;16.50;4.97;;;;;;;;;;5058562;28;20035;-75
2022/04/08 04:30:43;;;;;;;20.00;5.10;;;;;;;;;;5054585;28;20024;-76
2022/04/08 04:33:10;;;;;;;22.75;5.32;;;;;;;;;;5037684;28;20115;-76
2022/04/08 04:35:36;;;;;;;15.10;4.40;;;;;;;;;;5042770;28;20036;-77
2022/04/08 04:38:02;;;;;;;19.40;4.63;;;;;;;;;;5061598;28;20074;-76
2022/04/08 04:40:29;;;;;;;19.75;4.82;;;;;;;;;;5057668;28;20037;-76
2022/04/08 04:42:55;;;;;;;25.95;6.15;;;;;;;;;;5046520;28;20064;-75
2022/04/08 04:45:22;;;;;;;17.60;5.38;;;;;;;;;;5023860;28;20124;-75
2022/04/08 04:47:48;;;;;;;22.08;4.85;;;;;;;;;;5018543;28;20398;-75
2022/04/08 04:50:14;;;;;;;24.70;5.80;;;;;;;;;;5019147;28;20051;-75
2022/04/08 04:52:40;;;;;;;20.35;4.95;;;;;;;;;;5021362;28;20089;-77
2022/04/08 04:55:06;;;;;;;19.27;4.63;;;;;;;;;;5016101;28;20025;-75
2022/04/08 04:57:32;;;;;;;16.60;5.13;;;;;;;;;;5032721;28;20034;-75
2022/04/08 04:59:58;;;;;;;21.02;6.55;;;;;;;;;;5031660;28;20078;-77
2022/04/08 05:02:25;;;;;;;16.52;5.35;;;;;;;;;;5034139;28;20017;-76
2022/04/08 05:04:51;;;;;;;18.58;5.38;;;;;;;;;;5028513;28;20032;-76
2022/04/08 05:07:17;;;;;;;35.17;6.07;;;;;;;;;;5030142;28;20085;-75
2022/04/08 05:09:43;;;;;;;18.60;5.60;;;;;;;;;;5034050;28;20549;-75
2022/04/08 05:12:09;;;;;;;25.40;5.60;;;;;;;;;;5016435;28;20124;-76
2022/04/08 05:14:36;;;;;;;16.92;5.75;;;;;;;;;;5032039;28;20036;-76
2022/04/08 05:17:02;;;;;;;22.80;5.50;;;;;;;;;;5033070;28;20021;-74
2022/04/08 05:19:28;;;;;;;17.17;6.35;;;;;;;;;;5022918;28;20029;-76
2022/04/08 05:21:54;;;;;;;30.02;5.78;;;;;;;;;;5018861;28;20566;-75
2022/04/08 05:24:20;;;;;;;18.73;4.90;;;;;;;;;;5036219;28;20059;-75
2022/04/08 05:26:46;;;;;;;19.10;4.88;;;;;;;;;;5035601;28;20126;-76
2022/04/08 05:29:12;;;;;;;21.17;4.47;;;;;;;;;;5033254;28;20029;-76
2022/04/08 05:31:38;;;;;;;15.43;4.00;;;;;;;;;;5037849;28;20025;-75
2022/04/08 05:34:05;;;;;;;21.88;4.80;;;;;;;;;;5026967;28;20029;-76
2022/04/08 05:36:32;;;;;;;18.15;4.32;;;;;;;;;;5016659;28;20215;-73
2022/04/08 05:38:58;;;;;;;18.30;5.00;;;;;;;;;;5016328;28;20433;-76
2022/04/08 05:41:24;;;;;;;15.80;5.13;;;;;;;;;;5018181;28;20044;-75
2022/04/08 05:43:50;;;;;;;11.55;4.32;;;;;;;;;;5033695;28;20091;-75
2022/04/08 05:46:16;;;;;;;20.33;4.70;;;;;;;;;;5037285;28;20103;-75
2022/04/08 05:48:42;;;;;;;16.63;4.25;;;;;;;;;;5019098;28;20132;-75
2022/04/08 05:51:08;;;;;;;20.42;3.80;;;;;;;;;;5032937;28;20515;-77
2022/04/08 05:53:34;;;;;;;16.98;4.20;;;;;;;;;;5042708;28;20874;-77
2022/04/08 05:56:04;;;;;;;17.27;4.30;;;;;;;;;;5038826;28;20034;-75
2022/04/08 05:58:30;;;;;;;15.63;4.95;;;;;;;;;;5018133;28;20068;-77
2022/04/08 06:00:57;;;;;;;16.92;3.70;;;;;;;;;;5013150;28;20030;-74
2022/04/08 06:03:23;;;;;;;17.90;3.80;;;;;;;;;;5038946;28;20042;-76
2022/04/08 06:05:49;;;;;;;11.15;3.72;;;;;;;;;;5016199;28;20557;-76
2022/04/08 06:08:15;;;;;;;21.67;4.80;;;;;;;;;;5041077;28;20033;-76
2022/04/08 06:10:41;;;;;;;19.30;3.95;;;;;;;;;;5023663;28;20029;-77
2022/04/08 06:13:07;;;;;;;14.73;3.65;;;;;;;;;;5044049;28;20037;-77
2022/04/08 06:15:34;;;;;;;16.98;3.80;;;;;;;;;;5041433;28;20038;-77
2022/04/08 06:18:01;;;;;;;11.15;3.33;;;;;;;;;;5043257;28;20103;-79
2022/04/08 06:20:27;;;;;;;25.27;4.03;;;;;;;;;;5032984;28;20036;-77
2022/04/08 06:22:53;;;;;;;11.82;3.45;;;;;;;;;;5040876;28;20081;-75
2022/04/08 06:25:20;;;;;;;17.90;3.60;;;;;;;;;;5040080;28;20029;-76
2022/04/08 06:27:56;;;;;;;16.08;3.53;;;;;;;;;;5038591;28;20033;-76
2022/04/08 06:30:22;;;;;;;13.60;3.80;;;;;;;;;;5040190;28;20048;-75
2022/04/08 06:32:49;;;;;;;19.50;4.65;;;;;;;;;;5036270;28;20120;-76
2022/04/08 06:35:15;;;;;;;16.98;3.70;;;;;;;;;;5024911;28;20116;-77
2022/04/08 06:37:41;;;;;;;27.17;4.43;;;;;;;;;;5036101;28;20029;-76
2022/04/08 06:40:08;;;;;;;19.55;3.45;;;;;;;;;;5026956;28;20026;-77
2022/04/08 06:42:34;;;;;;;15.77;4.47;;;;;;;;;;5045533;28;20131;-76
2022/04/08 06:45:00;;;;;;;16.17;3.92;;;;;;;;;;5060572;28;20071;-77
2022/04/08 06:47:26;;;;;;;13.85;3.65;;;;;;;;;;5062785;28;20080;-76
2022/04/08 06:49:52;;;;;;;17.10;3.50;;;;;;;;;;5051279;28;20033;-75
2022/04/08 06:52:18;;;;;;;17.08;3.67;;;;;;;;;;5056766;28;20486;-76
2022/04/08 06:54:44;;;;;;;14.68;3.80;;;;;;;;;;5061350;28;20021;-76
2022/04/08 06:57:10;;;;;;;22.95;4.38;;;;;;;;;;5060767;28;20029;-76
2022/04/08 06:59:37;;;;;;;14.50;3.25;;;;;;;;;;5044141;28;20033;-76
2022/04/08 07:02:03;;;;;;;14.18;2.80;;;;;;;;;;5032868;28;20490;-75
2022/04/08 07:04:29;;;;;;;13.70;3.10;;;;;;;;;;5053692;28;20063;-75
2022/04/08 07:06:56;;;;;;;12.43;3.25;;;;;;;;;;5035309;28;20349;-75
2022/04/08 07:09:22;;;;;;;16.27;3.47;;;;;;;;;;5054329;28;20060;-75
2022/04/08 07:11:48;;;;;;;15.45;4.18;;;;;;;;;;5035771;28;20033;-75
2022/04/08 07:14:14;;;;;;;15.98;3.10;;;;;;;;;;5052028;28;20116;-75
2022/04/08 07:16:43;;;;;;;15.90;4.03;;;;;;;;;;5060668;28;20043;-73
2022/04/08 07:19:10;;;;;;;13.60;3.63;;;;;;;;;;5064270;28;20024;-75
2022/04/08 07:21:36;;;;;;;9.73;3.03;;;;;;;;;;5066297;28;20055;-76
2022/04/08 07:24:03;;;;;;;17.35;3.20;;;;;;;;;;5059215;28;20487;-75
2022/04/08 07:26:29;;;;;;;13.52;2.70;;;;;;;;;;5053262;28;20029;-76
2022/04/08 07:28:55;;;;;;;15.93;3.03;;;;;;;;;;5055603;28;20039;-76
2022/04/08 07:31:21;;;;;;;10.27;3.00;;;;;;;;;;5062607;28;20037;-77
2022/04/08 07:33:47;;;;;;;9.32;2.55;;;;;;;;;;5052675;28;20040;-75
2022/04/08 07:36:14;;;;;;;9.27;3.22;;;;;;;;;;5057030;28;20079;-76
2022/04/08 07:38:40;;;;;;;10.02;3.13;;;;;;;;;;5067555;28;20075;-76
2022/04/08 07:41:06;;;;;;;11.75;3.20;;;;;;;;;;5030543;28;20063;-75
2022/04/08 07:43:32;;;;;;;18.17;2.78;;;;;;;;;;5034041;28;20542;-77
2022/04/08 07:45:58;;;;;;;14.48;2.30;;;;;;;;;;5043822;28;20029;-77
2022/04/08 07:48:24;;;;;;;11.57;3.70;;;;;;;;;;5045488;28;20025;-77
2022/04/08 07:50:50;;;;;;;15.35;2.97;;;;;;;;;;5039461;28;20317;-76
2022/04/08 07:53:16;;;;;;;12.93;2.75;;;;;;;;;;5055017;28;20052;-77
2022/04/08 07:55:42;;;;;;;15.95;5.25;;;;;;;;;;5060079;28;20021;-77
2022/04/08 07:58:08;;;;;;;15.00;2.85;;;;;;;;;;5036377;28;20025;-76
2022/04/08 08:00:34;;;;;;;11.18;2.90;;;;;;;;;;5059887;28;20587;-75
2022/04/08 08:03:01;;;;;;;15.75;2.80;;;;;;;;;;5058692;28;20063;-75
2022/04/08 08:05:28;;;;;;;14.30;2.58;;;;;;;;;;5050915;28;20127;-75
2022/04/08 08:07:55;;;;;;;9.05;2.42;;;;;;;;;;5055528;28;20061;-74
2022/04/08 08:10:21;;;;;;;13.57;2.75;;;;;;;;;;5042837;28;20158;-75
2022/04/08 08:12:48;;;;;;;12.68;3.15;;;;;;;;;;5043257;28;20064;-76
2022/04/08 08:15:15;;;;;;;9.60;2.70;;;;;;;;;;5044752;28;20078;-74
2022/04/08 08:17:41;;;;;;;10.80;2.63;;;;;;;;;;5060135;28;20013;-75
2022/04/08 08:20:08;;;;;;;11.00;3.08;;;;;;;;;;5060534;28;20024;-75
2022/04/08 08:22:34;;;;;;;10.90;3.28;;;;;;;;;;5041401;28;20037;-75
2022/04/08 08:25:00;;;;;;;16.77;3.35;;;;;;;;;;5057572;28;20032;-75
2022/04/08 08:27:26;;;;;;;14.07;2.85;;;;;;;;;;5065060;28;20486;-75
2022/04/08 08:29:53;;;;;;;15.10;3.30;;;;;;;;;;5064044;28;20033;-76
2022/04/08 08:32:19;;;;;;;14.60;2.30;;;;;;;;;;5031696;28;20040;-76
2022/04/08 08:34:45;;;;;;;15.45;2.42;;;;;;;;;;5056700;28;20029;-75
2022/04/08 08:37:11;;;;;;;18.00;3.25;;;;;;;;;;5042474;28;20036;-75
2022/04/08 08:39:37;;;;;;;28.35;3.78;;;;;;;;;;5057003;28;20025;-75
2022/04/08 08:42:05;;;;;;;14.93;2.60;;;;;;;;;;5035758;28;20029;-77
2022/04/08 08:44:32;;;;;;;16.55;2.13;;;;;;;;;;5019414;28;20091;-75
2022/04/08 08:46:58;;;;;;;11.98;2.10;;;;;;;;;;5038634;28;20037;-76
2022/04/08 08:49:26;;;;;;;16.08;2.63;;;;;;;;;;5024744;28;20052;-76
2022/04/08 08:51:56;;;;;;;13.48;1.98;;;;;;;;;;5042295;28;20272;-75
2022/04/08 08:54:22;;;;;;;9.55;2.50;;;;;;;;;;5039318;28;20041;-74
2022/04/08 08:56:49;;;;;;;14.60;2.33;;;;;;;;;;5019170;28;20037;-75
2022/04/08 08:59:18;;;;;;;12.70;2.42;;;;;;;;;;5021431;28;20070;-76
2022/04/08 09:01:44;;;;;;;17.38;2.40;;;;;;;;;;5036430;28;20094;-74
2022/04/08 09:04:10;;;;;;;11.82;2.10;;;;;;;;;;5025100;28;20060;-77
2022/04/08 09:06:42;;;;;;;10.15;2.22;;;;;;;;;;5029532;28;20104;-77
2022/04/08 09:09:11;;;;;;;9.98;1.98;;;;;;;;;;5039764;28;20036;-76
2022/04/08 09:11:37;;;;;;;12.20;2.03;;;;;;;;;;5021654;28;20041;-77
2022/04/08 09:14:04;;;;;;;11.88;2.13;;;;;;;;;;5044642;28;20033;-76
2022/04/08 09:16:36;;;;;;;16.38;2.17;;;;;;;;;;5014191;28;20116;-78
2022/04/08 09:19:09;;;;;;;10.20;1.60;;;;;;;;;;5034290;28;20106;-76
2022/04/08 09:21:35;;;;;;;16.13;1.85;;;;;;;;;;5041157;28;20071;-76
2022/04/08 09:24:07;;;;;;;10.85;1.70;;;;;;;;;;5043288;28;20208;-77
2022/04/08 09:26:37;;;;;;;10.05;1.85;;;;;;;;;;5022460;28;20518;-76
2022/04/08 09:29:05;;;;;;;7.35;1.58;;;;;;;;;;5043460;28;20103;-77
2022/04/08 09:31:32;;;;;;;11.35;2.00;;;;;;;;;;5052769;28;20516;-77
2022/04/08 09:33:58;;;;;;;5.90;1.58;;;;;;;;;;5029469;28;20037;-77
2022/04/08 09:36:31;;;;;;;10.52;2.13;;;;;;;;;;5043434;28;20127;-78
2022/04/08 09:38:57;;;;;;;11.13;2.03;;;;;;;;;;5041375;28;20025;-79
2022/04/08 09:41:42;;;;;;;8.23;2.75;;;;;;;;;;5044479;28;20841;-77
2022/04/08 09:44:09;;;;;;;12.10;2.10;;;;;;;;;;5056622;28;20564;-77
2022/04/08 09:46:36;;;;;;;10.00;1.88;;;;;;;;;;5023944;28;20041;-76
2022/04/08 09:49:02;;;;;;;9.57;2.00;;;;;;;;;;5055684;28;20040;-86
2022/04/08 09:51:30;;;;;;;11.50;2.28;;;;;;;;;;5060795;28;20025;-76
2022/04/08 09:54:05;;;;;;;15.27;2.10;;;;;;;;;;5067919;28;20052;-75
2022/04/08 09:56:31;;;;;;;14.85;2.17;;;;;;;;;;5044706;28;20087;-76
2022/04/08 09:59:03;;;;;;;8.52;2.08;;;;;;;;;;5079761;28;20017;-76
2022/04/08 10:01:29;;;;;;;10.68;2.10;;;;;;;;;;5052798;28;20032;-76
2022/04/08 10:03:56;;;;;;;10.43;2.10;;;;;;;;;;5064340;28;20086;-77
2022/04/08 10:06:23;;;;;;;13.18;2.47;;;;;;;;;;5071384;28;20028;-76
2022/04/08 10:08:49;;;;;;;13.82;2.20;;;;;;;;;;5044674;28;20054;-77
2022/04/08 10:11:19;;;;;;;14.18;2.58;;;;;;;;;;5067577;28;20092;-77
2022/04/08 10:14:03;;;;;;;13.30;2.13;;;;;;;;;;5063496;28;20080;-77
2022/04/08 10:16:31;;;;;;;11.13;2.88;;;;;;;;;;5065049;28;20095;-80
2022/04/08 10:19:04;;;;;;;9.07;2.60;;;;;;;;;;5041189;28;20437;-76
2022/04/08 10:21:40;;;;;;;10.18;2.25;;;;;;;;;;5049035;28;20029;-77
2022/04/08 10:24:15;;;;;;;26.15;4.18;;;;;;;;;;5046571;28;20032;-77
2022/04/08 10:26:56;;;;;;;12.45;2.65;;;;;;;;;;5061123;28;20054;-77
2022/04/08 10:29:22;;;;;;;9.98;2.42;;;;;;;;;;5049080;28;20234;-76
2022/04/08 10:32:00;;;;;;;10.57;1.67;;;;;;;;;;5072243;28;20052;-76
2022/04/08 10:34:26;;;;;;;13.30;2.42;;;;;;;;;;5062086;28;20112;-77
2022/04/08 10:36:53;;;;;;;11.32;2.13;;;;;;;;;;5071930;28;20465;-76
2022/04/08 10:39:20;;;;;;;11.68;3.75;;;;;;;;;;5070526;28;20025;-76
2022/04/08 10:41:47;;;;;;;9.85;2.05;;;;;;;;;;5043016;28;20556;-77
2022/04/08 10:44:13;;;;;;;7.68;2.17;;;;;;;;;;5040012;28;20060;-76
2022/04/08 10:46:49;;;;;;;8.07;1.73;;;;;;;;;;5064047;28;20387;-76
2022/04/08 10:49:16;;;;;;;10.80;1.67;;;;;;;;;;5068772;28;20430;-77
2022/04/08 10:51:49;;;;;;;11.95;2.42;;;;;;;;;;5067620;28;20032;-77
2022/04/08 10:54:15;;;;;;;9.23;2.22;;;;;;;;;;5051211;28;20068;-78
2022/04/08 10:56:41;;;;;;;9.25;1.85;;;;;;;;;;5064373;28;20044;-76
2022/04/08 10:59:08;;;;;;;14.05;3.65;;;;;;;;;;5062201;28;20024;-77
2022/04/08 11:01:44;;;;;;;13.05;3.30;;;;;;;;;;5065544;28;20037;-77
2022/04/08 11:04:10;;;;;;;11.23;2.25;;;;;;;;;;5068455;28;20028;-76
2022/04/08 11:06:37;;;;;;;7.97;1.92;;;;;;;;;;5068087;28;20405;-78
2022/04/08 11:09:07;;;;;;;10.05;2.58;;;;;;;;;;5047255;28;20056;-77
2022/04/08 11:11:34;;;;;;;10.88;1.83;;;;;;;;;;5035533;28;20049;-77
2022/04/08 11:14:01;;;;;;;8.65;1.88;;;;;;;;;;5049581;28;20024;-76
2022/04/08 11:16:29;;;;;;;12.80;2.55;;;;;;;;;;5059014;28;20032;-77
2022/04/08 11:18:55;;;;;;;14.27;2.83;;;;;;;;;;5040285;28;20021;-78
2022/04/08 11:21:23;;;;;;;9.13;2.40;;;;;;;;;;5062648;28;20055;-77
2022/04/08 11:23:57;;;;;;;12.90;2.00;;;;;;;;;;5062752;28;20358;-76
2022/04/08 11:26:24;;;;;;;8.50;2.10;;;;;;;;;;5061920;28;20040;-76
2022/04/08 11:28:50;;;;;;;16.33;3.03;;;;;;;;;;5039689;28;20475;-77
2022/04/08 11:31:19;;;;;;;13.32;2.15;;;;;;;;;;5053761;28;20106;-77
2022/04/08 11:33:47;;;;;;;10.45;3.00;;;;;;;;;;5055746;28;20025;-77
2022/04/08 11:36:14;;;;;;;14.13;2.83;;;;;;;;;;5053372;28;20044;-76
2022/04/08 11:38:42;;;;;;;15.07;2.95;;;;;;;;;;5046628;28;20477;-77
2022/04/08 11:41:18;;;;;;;9.85;2.13;;;;;;;;;;5076543;28;20068;-77
2022/04/08 11:43:45;;;;;;;9.05;2.20;;;;;;;;;;5063974;28;20138;-77
2022/04/08 11:46:16;;;;;;;12.18;1.90;;;;;;;;;;5062791;28;20419;-77
2022/04/08 11:48:42;;;;;;;10.13;2.20;;;;;;;;;;5069226;28;20350;-76
2022/04/08 11:51:08;;;;;;;8.93;2.10;;;;;;;;;;5059656;28;20044;-76
2022/04/08 11:53:44;;;;;;;11.60;2.05;;;;;;;;;;5046129;28;20035;-76
2022/04/08 11:56:10;;;;;;;13.98;2.10;;;;;;;;;;5062989;28;20108;-77
2022/04/08 11:58:37;;;;;;;13.95;2.17;;;;;;;;;;5060337;28;20500;-77
2022/04/08 12:01:03;;;;;;;8.65;2.33;;;;;;;;;;5054765;28;20024;-77
2022/04/08 12:03:30;;;;;;;13.27;2.30;;;;;;;;;;5053296;28;20106;-77
2022/04/08 12:05:58;;;;;;;10.02;2.42;;;;;;;;;;5056506;28;20025;-76
2022/04/08 12:08:24;;;;;;;15.88;2.70;;;;;;;;;;5039905;28;20033;-76
2022/04/08 12:10:51;;;;;;;11.50;2.80;;;;;;;;;;5058297;28;20021;-75
2022/04/08 12:13:19;;;;;;;12.20;2.50;;;;;;;;;;5057484;28;20055;-76
2022/04/08 12:15:46;;;;;;;13.80;2.65;;;;;;;;;;5054832;28;20079;-77
2022/04/08 12:18:12;;;;;;;12.35;2.45;;;;;;;;;;5057023;28;20068;-78
2022/04/08 12:20:39;;;;;;;10.65;2.70;;;;;;;;;;5054596;28;20044;-77
2022/04/08 12:23:05;;;;;;;11.20;2.35;;;;;;;;;;5052423;28;20025;-76
2022/04/08 12:25:32;;;;;;;9.40;2.25;;;;;;;;;;5052601;28;20032;-77
2022/04/08 12:27:59;;;;;;;9.00;2.15;;;;;;;;;;5057515;28;20073;-76
2022/04/08 12:30:30;;;;;;;8.07;2.38;;;;;;;;;;5061104;28;20104;-77
2022/04/08 12:32:57;;;;;;;9.25;2.55;;;;;;;;;;5061538;28;20036;-77
2022/04/08 12:35:23;;;;;;;18.08;2.72;;;;;;;;;;5063640;28;20405;-77
2022/04/08 12:37:49;;;;;;;10.63;3.13;;;;;;;;;;5049243;28;20107;-77
2022/04/08 12:40:15;;;;;;;13.30;3.03;;;;;;;;;;5046027;28;20524;-76
2022/04/08 12:42:41;;;;;;;8.60;2.58;;;;;;;;;;5065869;28;20074;-76
2022/04/08 12:45:09;;;;;;;16.48;4.13;;;;;;;;;;5056171;28;20033;-77
2022/04/08 12:47:35;;;;;;;11.07;2.45;;;;;;;;;;5032685;28;20128;-77
2022/04/08 12:50:01;;;;;;;11.32;2.47;;;;;;;;;;5058082;28;20413;-75
2022/04/08 12:52:27;;;;;;;14.35;2.45;;;;;;;;;;5064038;28;20044;-76
2022/04/08 12:54:54;;;;;;;9.90;2.60;;;;;;;;;;5040465;28;20028;-76
2022/04/08 12:57:20;;;;;;;14.35;2.90;;;;;;;;;;5057369;28;20025;-76
2022/04/08 12:59:47;;;;;;;11.15;2.50;;;;;;;;;;5060669;28;20082;-76
2022/04/08 13:02:13;;;;;;;10.80;3.47;;;;;;;;;;5043046;28;20037;-77
2022/04/08 13:04:40;;;;;;;12.43;2.40;;;;;;;;;;5059289;28;20449;-77
2022/04/08 13:07:07;;;;;;;12.65;2.33;;;;;;;;;;5044078;28;20478;-76
2022/04/08 13:09:34;;;;;;;18.05;2.10;;;;;;;;;;5065338;28;20111;-75
2022/04/08 13:12:00;;;;;;;9.23;2.42;;;;;;;;;;5060813;28;20032;-77
2022/04/08 13:14:26;;;;;;;12.48;2.28;;;;;;;;;;5058933;28;20067;-75
2022/04/08 13:16:52;;;;;;;16.45;2.25;;;;;;;;;;5057060;28;20162;-76
2022/04/08 13:19:18;;;;;;;12.68;2.47;;;;;;;;;;5053897;28;20029;-76
2022/04/08 13:21:45;;;;;;;10.70;2.15;;;;;;;;;;5060662;28;20409;-75
2022/04/08 13:24:11;;;;;;;15.93;2.22;;;;;;;;;;5058095;28;20040;-75
2022/04/08 13:26:37;;;;;;;7.20;1.83;;;;;;;;;;5046119;28;20029;-77
2022/04/08 13:29:04;;;;;;;7.90;2.20;;;;;;;;;;5060640;28;20025;-77
2022/04/08 13:31:31;;;;;;;10.18;2.03;;;;;;;;;;5067544;28;20482;-77
2022/04/08 13:33:57;;;;;;;6.90;2.00;;;;;;;;;;5059599;28;20094;-76
2022/04/08 13:36:23;;;;;;;15.57;2.78;;;;;;;;;;5054178;28;20021;-77
2022/04/08 13:38:49;;;;;;;12.85;2.45;;;;;;;;;;5059015;28;20033;-79
2022/04/08 13:41:15;;;;;;;11.07;2.67;;;;;;;;;;5068063;28;20065;-77
2022/04/08 13:43:41;;;;;;;9.00;2.30;;;;;;;;;;5044510;28;20102;-77
2022/04/08 13:46:07;;;;;;;8.82;1.80;;;;;;;;;;5058712;28;20052;-77
2022/04/08 13:48:33;;;;;;;7.30;1.95;;;;;;;;;;5042525;28;20024;-77
2022/04/08 13:50:59;;;;;;;11.60;2.47;;;;;;;;;;5039622;28;20032;-77
2022/04/08 13:53:25;;;;;;;7.93;2.03;;;;;;;;;;5064961;28;20052;-78
2022/04/08 13:55:51;;;;;;;7.43;2.00;;;;;;;;;;5069996;28;20364;-77
2022/04/08 13:58:17;;;;;;;13.10;2.30;;;;;;;;;;5051069;28;20032;-77
2022/04/08 14:00:43;;;;;;;9.18;2.92;;;;;;;;;;5041891;28;20406;-75
2022/04/08 14:03:09;;;;;;;8.35;2.00;;;;;;;;;;5034016;28;20040;-77
2022/04/08 14:05:35;;;;;;;12.07;2.40;;;;;;;;;;5043768;28;20037;-77
2022/04/08 14:08:01;;;;;;;9.50;2.55;;;;;;;;;;5059736;28;20079;-76
2022/04/08 14:10:28;;;;;;;6.70;1.80;;;;;;;;;;5066978;28;20043;-76
2022/04/08 14:12:54;;;;;;;6.05;2.00;;;;;;;;;;5065852;28;20083;-78
2022/04/08 14:15:20;;;;;;;12.63;2.45;;;;;;;;;;5062691;28;20024;-79
2022/04/08 14:17:46;;;;;;;15.75;2.78;;;;;;;;;;5065763;28;20183;-76
2022/04/08 14:20:12;;;;;;;8.43;2.08;;;;;;;;;;5045786;28;20024;-76
2022/04/08 14:22:39;;;;;;;9.65;2.35;;;;;;;;;;5050232;28;20036;-76
2022/04/08 14:25:05;;;;;;;11.43;2.58;;;;;;;;;;5060203;28;20037;-75
2022/04/08 14:27:32;;;;;;;7.80;2.15;;;;;;;;;;5040668;28;20040;-76
2022/04/08 14:29:58;;;;;;;11.63;3.00;;;;;;;;;;5063679;28;20033;-76